Terminal Aerodrome Forecast
Issued by NWS

Home | Current Version | Previous Version | Text Only | Print | Product List | Glossary On
Versions: 1 2 3 4 5 6 7 8 9 10 11 12 13 14 15 16 17
000
FTUS45 KABQ 041955 AAA
TAFAEG
TAF AMD
KAEG 041955Z 0420/0518 26007KT P6SM VCTS SCT090CB
      TEMPO 0420/0423 VRB15G30KT
     FM042300 30012KT P6SM SCT090
     FM050200 33006KT P6SM FEW120
     FM050500 VRB04KT P6SM SKC=

USA.gov is the U.S. government's official web portal to all federal, state and local government web resources and services.